Alpena, MI

3:05 PM EST on January 31, 2015 (GMT -0500)
Presque Isle County | Change Station
CLOSE
Current Station
Airport
Location: Rogers City,
Elevation: 669 ft
Nearby Weather Stations

Elev 669 ft 45.41 °N, 83.81 °W | Updated 6 hours ago

Overcast
Overcast
28 °F
Feels Like 20 °F
N
8
Wind Variable Wind from WSW
Gusts 13 mph

Today
High -- | Low -- °F
--% Chance of Precip.
Yesterday
High -- | Low -- °F
Precip. -- in
7:55 AM 5:39 PM
Waxing Gibbous, 91% visible
Pressure 30.15 in
Visibility 10.0 miles
Clouds Mostly Cloudy 5500 ft
Overcast 7000 ft
Windchill 20 °F
Dew Point 19 °F
Humidity 69%
Rainfall 0.00 in
Snow Depth Not available.
UV 0 out of 12
Pollen .10 out of 12
Air Quality Not available.
Flu Activity Not available.
METAR KPZQ 311405Z AUTO 19007KT 10SM BKN055 OVC070 M09/M11 A3015 RMK AO2

More Conditions Fewer Conditions

Pressure 30.15 in
Visibility 10.0 miles
Clouds Mostly Cloudy 5500 ft
Overcast 7000 ft
Windchill 20 °F
Dew Point 19 °F
Humidity 69%
Rainfall 0.00 in
Snow Depth Not available.
UV 0 out of 12
Pollen .10 out of 12
Air Quality Not available.
Flu Activity Not available.
METAR KPZQ 311405Z AUTO 19007KT 10SM BKN055 OVC070 M09/M11 A3015 RMK AO2

More Conditions Fewer Conditions

Nowcast | as of 3:00 PM EST on January 31, 2015

At 4 PM...cloudy. Temperature 27. West winds 7 mph. At 6 PM...mostly cloudy. Temperature 24. Northwest winds 8 mph. At 8 PM...mostly cloudy. Chance of flurries. Temperature 21. Northwest winds 8 mph. At 10 PM...mostly cloudy. Chance of flurries. Temperature 18. North winds 9 mph.

×

10-Day Weather Forecast

Almanac

Astronomy

Jan. 31, 2015 Rise Set
Actual Time
Civil Twilight
Nautical Twilight
Astronomical Twilight
Moon
Length of Visible Light
Length of Day
Tomorrow will be .
, % of the Moon is Illuminated

Today's Extremes

State Highs State Lows

Community

WunderPhotos

Upload Photos

1,792,173 photos uploaded!

WunderBlogs® & News

Nearby

Air Quality

  Air Quality AQ Index Pollutant
Not available.

Snow Depth

Station Depth Elevation

Earthquake Activity

City Distance Mag. Time & Date
Minimum magnitude displayed is 2.5.

Coastal Water Temperatures

Place Temperature

Nearby Weather Stations